createdAt,value
2023-02-20T00:00:08.133Z,1016.14
2023-02-20T00:01:08.420Z,1016.14
2023-02-20T00:02:08.756Z,1016.17
2023-02-20T00:03:09.044Z,1016.16
2023-02-20T00:04:11.228Z,1016.17
2023-02-20T00:05:11.398Z,1016.08
2023-02-20T00:06:11.798Z,1016.09
2023-02-20T00:07:11.719Z,1016.09
2023-02-20T00:08:12.408Z,1016.02
2023-02-20T00:09:12.594Z,1016.02
2023-02-20T00:10:11.091Z,1016.02
2023-02-20T00:11:13.235Z,1016.08
2023-02-20T00:12:11.608Z,1016.11
2023-02-20T00:13:13.786Z,1015.97
2023-02-20T00:14:13.976Z,1015.81
2023-02-20T00:15:14.170Z,1015.72
2023-02-20T00:16:14.568Z,1015.81
2023-02-20T00:17:14.999Z,1015.86
2023-02-20T00:18:15.209Z,1015.67
2023-02-20T00:19:15.392Z,1015.61
2023-02-20T00:20:15.660Z,1015.69
2023-02-20T00:21:16.259Z,1015.64
2023-02-20T00:22:16.448Z,1015.83
2023-02-20T00:23:16.783Z,1015.61
2023-02-20T00:24:16.965Z,1015.56
2023-02-20T00:25:17.531Z,1015.64
2023-02-20T00:26:17.711Z,1015.32
2023-02-20T00:27:17.893Z,1015.59
2023-02-20T00:28:18.083Z,1015.38
2023-02-20T00:29:18.262Z,1015.40
2023-02-20T00:30:18.969Z,1015.28
2023-02-20T00:31:19.377Z,1015.23
2023-02-20T00:32:17.647Z,1015.14
2023-02-20T00:33:17.957Z,1015.14
2023-02-20T00:34:18.245Z,1015.19
2023-02-20T00:35:18.532Z,1015.16
2023-02-20T00:36:20.733Z,1015.05
2023-02-20T00:37:19.087Z,1015.09
2023-02-20T00:38:21.263Z,1015.03
2023-02-20T00:39:21.475Z,1015.09
2023-02-20T00:40:19.975Z,1015.01
2023-02-20T00:41:22.135Z,1015.03
2023-02-20T00:42:22.334Z,1014.97
2023-02-20T00:43:20.923Z,1015.13
2023-02-20T00:44:21.231Z,1015.00
2023-02-20T00:45:21.528Z,1014.98
2023-02-20T00:46:21.849Z,1014.93
2023-02-20T00:47:23.987Z,1014.83
2023-02-20T00:48:22.357Z,1015.01
2023-02-20T00:49:24.549Z,1014.86
2023-02-20T00:50:22.912Z,1014.69
2023-02-20T00:51:23.207Z,1014.59
2023-02-20T00:52:23.497Z,1014.68
2023-02-20T00:53:25.686Z,1014.77
2023-02-20T00:54:24.057Z,1014.67
2023-02-20T00:55:26.252Z,1014.57
2023-02-20T00:56:24.617Z,1014.64
2023-02-20T00:57:25.797Z,1014.55
2023-02-20T00:58:25.959Z,1014.57
2023-02-20T00:59:26.367Z,1014.80
2023-02-20T01:00:25.734Z,1014.63
2023-02-20T01:01:27.986Z,1014.81
2023-02-20T01:02:26.316Z,1014.59
2023-02-20T01:03:26.600Z,1014.52
2023-02-20T01:04:26.878Z,1014.39
2023-02-20T01:05:27.186Z,1014.40
2023-02-20T01:06:29.360Z,1014.32
2023-02-20T01:07:27.731Z,1014.64
2023-02-20T01:08:29.918Z,1014.47
2023-02-20T01:09:28.291Z,1014.33
2023-02-20T01:10:28.584Z,1014.37
2023-02-20T01:11:28.877Z,1014.52
2023-02-20T01:12:29.164Z,1014.40
2023-02-20T01:13:31.369Z,1014.23
2023-02-20T01:14:29.737Z,1014.22
2023-02-20T01:16:45.876Z,1014.17
2023-02-20T01:17:46.173Z,1014.47
2023-02-20T01:18:46.486Z,1014.23
2023-02-20T01:19:46.748Z,1014.19
2023-02-20T01:20:48.943Z,1014.17
2023-02-20T01:21:47.301Z,1014.64
2023-02-20T01:22:47.610Z,1014.16
2023-02-20T01:23:49.788Z,1014.21
2023-02-20T01:24:48.170Z,1014.23
2023-02-20T01:25:48.455Z,1014.51
2023-02-20T01:26:51.604Z,1014.27
2023-02-20T01:27:48.977Z,1014.24
2023-02-20T01:28:50.226Z,1014.34
2023-02-20T01:29:51.459Z,1014.16
2023-02-20T01:30:51.655Z,1014.31
2023-02-20T01:31:50.261Z,1014.20
2023-02-20T01:32:50.409Z,1014.26
2023-02-20T01:33:52.596Z,1014.27
2023-02-20T01:34:50.962Z,1014.14
2023-02-20T01:35:51.312Z,1014.02
2023-02-20T01:36:53.508Z,1014.01
2023-02-20T01:37:53.674Z,1014.39
2023-02-20T01:38:53.861Z,1014.16
2023-02-20T01:39:54.053Z,1014.15
2023-02-20T01:40:54.752Z,1014.14
2023-02-20T01:41:54.904Z,1014.19
2023-02-20T01:42:55.117Z,1014.17
2023-02-20T01:43:55.305Z,1014.19
2023-02-20T01:44:56.014Z,1014.20
2023-02-20T01:45:56.174Z,1014.16
2023-02-20T01:46:56.471Z,1014.26
2023-02-20T01:47:56.536Z,1014.34
2023-02-20T01:48:56.708Z,1014.27
2023-02-20T01:49:57.389Z,1014.32
2023-02-20T01:50:57.581Z,1014.42
2023-02-20T01:51:56.077Z,1014.60
2023-02-20T01:52:58.275Z,1014.85
2023-02-20T01:53:56.636Z,1015.04
2023-02-20T01:54:58.847Z,1015.16
2023-02-20T01:55:59.006Z,1015.17
2023-02-20T01:56:59.167Z,1015.13
2023-02-20T01:57:59.357Z,1015.05
2023-02-20T01:59:00.047Z,1015.05
2023-02-20T02:00:00.243Z,1015.01
2023-02-20T02:01:00.548Z,1015.13
2023-02-20T02:02:00.694Z,1014.97
2023-02-20T02:03:00.811Z,1014.96
2023-02-20T02:04:01.498Z,1015.04
2023-02-20T02:05:01.895Z,1014.92
2023-02-20T02:06:01.913Z,1014.88
2023-02-20T02:07:02.098Z,1014.87
2023-02-20T02:08:02.392Z,1014.93
2023-02-20T02:09:02.989Z,1014.80
2023-02-20T02:10:03.138Z,1014.90
2023-02-20T02:11:03.317Z,1014.95
2023-02-20T02:12:03.520Z,1014.77
2023-02-20T02:13:04.160Z,1014.86
2023-02-20T02:14:04.342Z,1014.84
2023-02-20T02:15:04.551Z,1014.84
2023-02-20T02:16:05.041Z,1014.93
2023-02-20T02:17:05.408Z,1014.84
2023-02-20T02:18:03.794Z,1014.66
2023-02-20T02:19:04.080Z,1014.91
2023-02-20T02:20:04.383Z,1014.81
2023-02-20T02:21:04.668Z,1014.59
2023-02-20T02:22:06.857Z,1014.76
2023-02-20T02:23:05.232Z,1014.48
2023-02-20T02:24:05.530Z,1014.55
2023-02-20T02:25:05.824Z,1014.44
2023-02-20T02:26:08.031Z,1014.46
2023-02-20T02:27:06.379Z,1014.38
2023-02-20T02:28:08.566Z,1014.35
2023-02-20T02:29:06.942Z,1014.35
2023-02-20T02:30:09.137Z,1014.32
2023-02-20T02:31:09.396Z,1014.28
2023-02-20T02:32:09.508Z,1014.39
2023-02-20T02:33:08.139Z,1014.25
2023-02-20T02:34:08.437Z,1014.25
2023-02-20T02:35:08.688Z,1014.40
2023-02-20T02:36:11.171Z,1014.28
2023-02-20T02:37:09.322Z,1014.23
2023-02-20T02:38:10.456Z,1014.12
2023-02-20T02:39:09.952Z,1014.15
2023-02-20T02:40:10.242Z,1014.14
2023-02-20T02:41:10.531Z,1013.93
2023-02-20T02:42:14.205Z,1014.12
2023-02-20T02:43:11.067Z,1014.10
2023-02-20T02:44:11.372Z,1014.08
2023-02-20T02:45:11.667Z,1013.87
2023-02-20T02:46:12.215Z,1013.88
2023-02-20T02:47:14.130Z,1013.79
2023-02-20T02:48:12.638Z,1013.78
2023-02-20T02:49:14.836Z,1013.85
2023-02-20T02:50:13.223Z,1013.81
2023-02-20T02:51:13.526Z,1013.89
2023-02-20T02:52:15.710Z,1013.72
2023-02-20T02:53:14.080Z,1013.48
2023-02-20T02:54:14.384Z,1013.58
2023-02-20T02:55:14.683Z,1013.50
2023-02-20T02:56:14.985Z,1013.33
2023-02-20T02:57:17.176Z,1013.17
2023-02-20T02:58:15.550Z,1013.19
2023-02-20T02:59:15.845Z,1013.03
2023-02-20T03:00:16.158Z,1013.04
2023-02-20T03:01:16.526Z,1013.08
2023-02-20T03:02:18.667Z,1013.36
2023-02-20T03:03:17.031Z,1013.33
2023-02-20T03:04:17.344Z,1013.23
2023-02-20T03:05:17.638Z,1013.26
2023-02-20T03:06:17.936Z,1013.39
2023-02-20T03:07:20.123Z,1013.39
2023-02-20T03:08:18.543Z,1013.41
2023-02-20T03:09:18.841Z,1013.32
2023-02-20T03:10:19.147Z,1013.44
2023-02-20T03:11:19.434Z,1013.35
2023-02-20T03:12:21.624Z,1013.37
2023-02-20T03:13:20.003Z,1013.35
2023-02-20T03:14:20.309Z,1013.31
2023-02-20T03:15:22.465Z,1013.27
2023-02-20T03:16:20.859Z,1013.37
2023-02-20T03:17:23.013Z,1013.26
2023-02-20T03:18:21.388Z,1013.28
2023-02-20T03:19:21.711Z,1013.39
2023-02-20T03:20:21.985Z,1013.32
2023-02-20T03:21:22.262Z,1013.13
2023-02-20T03:22:24.451Z,1013.09
2023-02-20T03:23:22.827Z,1013.19
2023-02-20T03:24:23.138Z,1013.09
2023-02-20T03:25:23.429Z,1013.10
2023-02-20T03:26:23.728Z,1012.97
2023-02-20T03:27:25.919Z,1012.93
2023-02-20T03:28:24.296Z,1012.90
2023-02-20T03:29:24.586Z,1012.95
2023-02-20T03:30:24.919Z,1012.85
2023-02-20T03:31:27.128Z,1012.88
2023-02-20T03:32:27.230Z,1012.82
2023-02-20T03:33:27.398Z,1012.64
2023-02-20T03:34:27.575Z,1012.68
2023-02-20T03:35:27.269Z,1012.78
2023-02-20T03:36:27.428Z,1012.69
2023-02-20T03:37:27.846Z,1012.61
2023-02-20T03:38:29.062Z,1012.59
2023-02-20T03:39:29.244Z,1012.62
2023-02-20T03:40:27.748Z,1012.66
2023-02-20T03:41:30.952Z,1012.56
2023-02-20T03:42:30.128Z,1012.63
2023-02-20T03:43:30.309Z,1012.48
2023-02-20T03:44:30.497Z,1012.56
2023-02-20T03:45:31.206Z,1012.59
2023-02-20T03:46:31.429Z,1012.47
2023-02-20T03:47:31.562Z,1012.57
2023-02-20T03:48:31.767Z,1012.37
2023-02-20T03:49:31.299Z,1012.48
2023-02-20T03:50:32.708Z,1012.49
2023-02-20T03:51:32.884Z,1012.52
2023-02-20T03:52:33.068Z,1012.48
2023-02-20T03:53:31.683Z,1012.36
2023-02-20T03:54:31.986Z,1012.51
2023-02-20T03:55:32.283Z,1012.39
2023-02-20T03:56:32.586Z,1012.36
2023-02-20T03:57:34.776Z,1012.36
2023-02-20T03:58:33.138Z,1012.55
2023-02-20T03:59:35.314Z,1012.36
2023-02-20T04:00:33.687Z,1012.30
2023-02-20T04:01:34.004Z,1012.36
2023-02-20T04:02:36.214Z,1012.29
2023-02-20T04:03:36.368Z,1012.25
2023-02-20T04:04:36.644Z,1012.10
2023-02-20T04:05:36.744Z,1012.25
2023-02-20T04:06:38.454Z,1012.34
2023-02-20T04:07:37.619Z,1012.20
2023-02-20T04:08:37.817Z,1012.24
2023-02-20T04:09:38.018Z,1012.16
2023-02-20T04:10:38.183Z,1012.12
2023-02-20T04:11:38.874Z,1012.12
2023-02-20T04:12:39.077Z,1012.13
2023-02-20T04:13:39.249Z,1012.08
2023-02-20T04:14:39.436Z,1012.12
2023-02-20T04:15:40.228Z,1012.15
2023-02-20T04:16:40.572Z,1012.13
2023-02-20T04:17:40.524Z,1012.13
2023-02-20T04:18:40.697Z,1012.00
2023-02-20T04:19:40.866Z,1012.10
2023-02-20T04:20:41.583Z,1012.03
2023-02-20T04:21:40.015Z,1012.07
2023-02-20T04:22:42.133Z,1011.95
2023-02-20T04:23:40.525Z,1012.05
2023-02-20T04:24:42.718Z,1012.35
2023-02-20T04:25:42.923Z,1011.97
2023-02-20T04:26:43.075Z,1012.11
2023-02-20T04:27:41.703Z,1012.04
2023-02-20T04:28:43.898Z,1012.09
2023-02-20T04:29:42.265Z,1011.93
2023-02-20T04:30:44.560Z,1011.74
2023-02-20T04:31:42.822Z,1011.79
2023-02-20T04:32:43.111Z,1011.72
2023-02-20T04:33:43.407Z,1011.73
2023-02-20T04:34:43.696Z,1011.69
2023-02-20T04:35:45.877Z,1011.83
2023-02-20T04:36:44.250Z,1011.61
2023-02-20T04:37:44.534Z,1011.68
2023-02-20T04:38:44.825Z,1011.75
2023-02-20T04:39:45.162Z,1011.61
2023-02-20T04:40:47.314Z,1011.69
2023-02-20T04:41:45.684Z,1011.71
2023-02-20T04:42:45.995Z,1011.66
2023-02-20T04:43:48.166Z,1011.86
2023-02-20T04:44:46.538Z,1011.73
2023-02-20T04:45:46.850Z,1011.86
2023-02-20T04:46:47.122Z,1011.82
2023-02-20T04:47:47.416Z,1011.82
2023-02-20T04:48:49.602Z,1011.64
2023-02-20T04:49:47.972Z,1011.57
2023-02-20T04:50:48.272Z,1011.51
2023-02-20T04:51:48.570Z,1011.50
2023-02-20T04:52:48.883Z,1011.53
2023-02-20T04:53:51.062Z,1011.39
2023-02-20T04:54:49.454Z,1011.41
2023-02-20T04:55:49.722Z,1011.36
2023-02-20T04:56:50.042Z,1011.48
2023-02-20T04:57:50.345Z,1011.38
2023-02-20T04:58:50.627Z,1011.32
2023-02-20T04:59:52.807Z,1011.41
2023-02-20T05:00:51.185Z,1011.27
2023-02-20T05:01:51.485Z,1011.34
2023-02-20T05:02:51.772Z,1011.28
2023-02-20T05:03:52.062Z,1011.43
2023-02-20T05:04:54.302Z,1011.14
2023-02-20T05:05:52.655Z,1011.23
2023-02-20T05:06:52.959Z,1011.09
2023-02-20T05:07:53.242Z,1011.01
2023-02-20T05:08:53.524Z,1010.91
2023-02-20T05:09:53.807Z,1011.06
2023-02-20T05:10:55.992Z,1010.94
2023-02-20T05:11:54.354Z,1010.98
2023-02-20T05:12:54.669Z,1011.20
2023-02-20T05:13:55.186Z,1010.98
2023-02-20T05:14:57.167Z,1010.84
2023-02-20T05:15:57.390Z,1011.02
2023-02-20T05:16:57.545Z,1010.99
2023-02-20T05:17:58.234Z,1010.76
2023-02-20T05:18:58.426Z,1010.94
2023-02-20T05:19:58.616Z,1010.69
2023-02-20T05:20:58.796Z,1010.75
2023-02-20T05:21:59.489Z,1010.79
2023-02-20T05:22:59.749Z,1010.89
2023-02-20T05:23:59.866Z,1010.75
2023-02-20T05:25:00.088Z,1010.77
2023-02-20T05:26:01.713Z,1010.78
2023-02-20T05:27:00.938Z,1010.90
2023-02-20T05:28:01.086Z,1010.76
2023-02-20T05:29:00.447Z,1010.77
2023-02-20T05:29:59.933Z,1010.88
2023-02-20T05:31:02.153Z,1010.79
2023-02-20T05:32:00.504Z,1010.80
2023-02-20T05:33:00.802Z,1010.92
2023-02-20T05:34:01.101Z,1010.83
2023-02-20T05:35:03.306Z,1010.82
2023-02-20T05:36:01.672Z,1010.69
2023-02-20T05:37:01.974Z,1010.72
2023-02-20T05:38:03.182Z,1010.51
2023-02-20T05:39:04.492Z,1010.59
2023-02-20T05:40:04.679Z,1010.63
2023-02-20T05:41:03.178Z,1010.54
2023-02-20T05:42:05.347Z,1010.52
2023-02-20T05:43:05.542Z,1010.49
2023-02-20T05:44:05.730Z,1010.54
2023-02-20T05:45:05.924Z,1010.36
2023-02-20T05:46:06.624Z,1010.47
2023-02-20T05:47:06.791Z,1010.47
2023-02-20T05:48:06.983Z,1010.39
2023-02-20T05:49:07.181Z,1010.54
2023-02-20T05:50:07.867Z,1010.50
2023-02-20T05:51:08.062Z,1010.54
2023-02-20T05:52:08.220Z,1010.56
2023-02-20T05:53:08.413Z,1010.52
2023-02-20T05:54:09.104Z,1010.54
2023-02-20T05:55:09.304Z,1010.57
2023-02-20T05:56:09.476Z,1010.41
2023-02-20T05:57:10.668Z,1010.76
2023-02-20T05:58:09.839Z,1010.40
2023-02-20T05:59:09.544Z,1010.33
2023-02-20T06:00:10.772Z,1010.56
2023-02-20T06:01:10.955Z,1010.54
2023-02-20T06:02:09.440Z,1010.49
2023-02-20T06:03:09.734Z,1010.49
2023-02-20T06:04:10.155Z,1010.66
2023-02-20T06:05:12.232Z,1010.59
2023-02-20T06:06:10.946Z,1010.59
2023-02-20T06:07:10.864Z,1010.37
2023-02-20T06:08:11.152Z,1010.45
2023-02-20T06:09:11.452Z,1010.32
2023-02-20T06:10:13.633Z,1010.45
2023-02-20T06:11:13.819Z,1010.44
2023-02-20T06:12:13.994Z,1010.24
2023-02-20T06:13:14.191Z,1010.39
2023-02-20T06:14:14.892Z,1010.27
2023-02-20T06:15:13.280Z,1010.20
2023-02-20T06:16:15.775Z,1010.40
2023-02-20T06:17:15.665Z,1010.35
2023-02-20T06:18:15.889Z,1010.27
2023-02-20T06:19:14.447Z,1010.54
2023-02-20T06:20:16.624Z,1010.30
2023-02-20T06:21:14.992Z,1010.36
2023-02-20T06:22:18.637Z,1010.53
2023-02-20T06:23:15.544Z,1010.31
2023-02-20T06:24:15.854Z,1010.33
2023-02-20T06:25:16.154Z,1010.22
2023-02-20T06:26:16.465Z,1010.43
2023-02-20T06:27:18.659Z,1010.39
2023-02-20T06:28:17.048Z,1010.37
2023-02-20T06:29:17.361Z,1010.30
2023-02-20T06:30:17.709Z,1010.31
2023-02-20T06:31:18.037Z,1010.35
2023-02-20T06:32:20.219Z,1010.33
2023-02-20T06:33:18.584Z,1010.28
2023-02-20T06:34:18.918Z,1010.35
2023-02-20T06:35:19.238Z,1010.22
2023-02-20T06:36:19.552Z,1010.27
2023-02-20T06:37:21.741Z,1010.40
2023-02-20T06:38:20.138Z,1010.28
2023-02-20T06:39:22.317Z,1010.35
2023-02-20T06:40:20.713Z,1010.17
2023-02-20T06:41:21.032Z,1010.14
2023-02-20T06:42:21.357Z,1010.14
2023-02-20T06:43:22.528Z,1010.29
2023-02-20T06:44:23.896Z,1010.04
2023-02-20T06:45:22.153Z,1010.14
2023-02-20T06:46:24.401Z,1010.37
2023-02-20T06:47:22.757Z,1010.15
2023-02-20T06:48:24.958Z,1010.22
2023-02-20T06:49:23.352Z,1010.33
2023-02-20T06:50:23.752Z,1010.32
2023-02-20T06:51:23.942Z,1010.20
2023-02-20T06:52:24.286Z,1010.25
2023-02-20T06:53:26.454Z,1010.28
2023-02-20T06:54:24.881Z,1010.25
2023-02-20T06:55:25.193Z,1010.19
2023-02-20T06:56:27.382Z,1010.10
2023-02-20T06:57:25.766Z,1010.06
2023-02-20T06:58:27.955Z,1010.01
2023-02-20T06:59:26.367Z,1010.13
2023-02-20T07:00:27.558Z,1009.95
2023-02-20T07:01:26.967Z,1010.01
2023-02-20T07:02:27.314Z,1009.87
2023-02-20T07:03:29.487Z,1009.88
2023-02-20T07:04:28.140Z,1010.00
2023-02-20T07:05:30.073Z,1009.84
2023-02-20T07:06:30.252Z,1009.86
2023-02-20T07:07:30.405Z,1009.92
2023-02-20T07:08:29.854Z,1009.90
2023-02-20T07:09:31.247Z,1010.37
2023-02-20T07:10:30.628Z,1009.82
2023-02-20T07:11:30.845Z,1009.91
2023-02-20T07:12:32.074Z,1009.79
2023-02-20T07:13:30.473Z,1010.10
2023-02-20T07:14:32.657Z,1009.74
2023-02-20T07:15:32.830Z,1009.87
2023-02-20T07:16:32.998Z,1009.79
2023-02-20T07:17:33.176Z,1009.73
2023-02-20T07:18:33.883Z,1009.84
2023-02-20T07:19:34.054Z,1009.72
2023-02-20T07:20:34.257Z,1009.77
2023-02-20T07:21:34.436Z,1009.77
2023-02-20T07:22:36.576Z,1009.86
2023-02-20T07:23:35.319Z,1009.84
2023-02-20T07:24:35.519Z,1009.77
2023-02-20T07:25:35.695Z,1009.80
2023-02-20T07:26:35.887Z,1009.88
2023-02-20T07:27:36.584Z,1009.94
2023-02-20T07:28:35.001Z,1009.75
2023-02-20T07:29:37.190Z,1009.97
2023-02-20T07:30:37.444Z,1010.06
2023-02-20T07:31:37.657Z,1009.97
2023-02-20T07:32:37.728Z,1009.92
2023-02-20T07:33:37.918Z,1010.00
2023-02-20T07:34:38.610Z,1009.99
2023-02-20T07:35:38.775Z,1009.95
2023-02-20T07:36:38.175Z,1009.77
2023-02-20T07:37:38.519Z,1009.84
2023-02-20T07:38:38.758Z,1009.89
2023-02-20T07:39:38.915Z,1009.79
2023-02-20T07:40:40.507Z,1009.93
2023-02-20T07:41:38.645Z,1009.96
2023-02-20T07:42:38.985Z,1009.80
2023-02-20T07:43:39.339Z,1009.79
2023-02-20T07:44:39.687Z,1009.57
2023-02-20T07:45:41.879Z,1009.78
2023-02-20T07:46:42.053Z,1009.77
2023-02-20T07:47:42.220Z,1009.74
2023-02-20T07:48:42.387Z,1009.75
2023-02-20T07:49:43.074Z,1009.89
2023-02-20T07:50:43.276Z,1009.85
2023-02-20T07:51:43.450Z,1009.79
2023-02-20T07:52:43.621Z,1009.68
2023-02-20T07:53:44.308Z,1009.87
2023-02-20T07:54:44.487Z,1009.87
2023-02-20T07:55:44.672Z,1009.67
2023-02-20T07:56:44.870Z,1009.87
2023-02-20T07:57:45.540Z,1009.79
2023-02-20T07:58:45.693Z,1009.67
2023-02-20T07:59:45.855Z,1009.86
2023-02-20T08:00:46.013Z,1010.01
2023-02-20T08:01:48.199Z,1009.75
2023-02-20T08:02:45.116Z,1009.78
2023-02-20T08:03:45.333Z,1009.57
2023-02-20T08:04:47.560Z,1009.73
2023-02-20T08:05:49.847Z,1009.61
2023-02-20T08:06:46.247Z,1009.40
2023-02-20T08:07:46.585Z,1009.63
2023-02-20T08:08:46.912Z,1009.67
2023-02-20T08:09:47.276Z,1009.58
2023-02-20T08:10:56.996Z,1009.62
2023-02-20T08:11:48.768Z,1009.69
2023-02-20T08:12:48.050Z,1009.56
2023-02-20T08:13:48.375Z,1009.69
2023-02-20T08:14:48.724Z,1009.66
2023-02-20T08:15:50.920Z,1009.75
2023-02-20T08:16:51.093Z,1009.87
2023-02-20T08:17:52.195Z,1009.75
2023-02-20T08:18:51.859Z,1009.64
2023-02-20T08:19:50.236Z,1009.68
2023-02-20T08:20:50.569Z,1009.70
2023-02-20T08:21:50.895Z,1009.72
2023-02-20T08:22:51.240Z,1009.85
2023-02-20T08:23:51.586Z,1009.60
2023-02-20T08:24:53.753Z,1009.61
2023-02-20T08:25:52.210Z,1009.59
2023-02-20T08:26:52.398Z,1009.44
2023-02-20T08:27:52.874Z,1009.79
2023-02-20T08:28:53.045Z,1009.40
2023-02-20T08:29:55.219Z,1009.79
2023-02-20T08:30:54.510Z,1009.38
2023-02-20T08:31:54.942Z,1009.67
2023-02-20T08:32:54.405Z,1009.46
2023-02-20T08:33:54.518Z,1009.57
2023-02-20T08:34:56.708Z,1009.47
2023-02-20T08:35:55.010Z,1009.63
2023-02-20T08:36:55.338Z,1009.34
2023-02-20T08:37:55.697Z,1009.53
2023-02-20T08:38:55.935Z,1009.23
2023-02-20T08:39:56.151Z,1009.38
2023-02-20T08:40:58.341Z,1009.36
2023-02-20T08:41:56.739Z,1009.34
2023-02-20T08:42:57.075Z,1009.50
2023-02-20T08:43:57.434Z,1009.30
2023-02-20T08:44:57.780Z,1009.10
2023-02-20T08:45:59.984Z,1009.51
2023-02-20T08:46:58.265Z,1009.46
2023-02-20T08:47:58.587Z,1009.61
2023-02-20T08:48:58.942Z,1009.43
2023-02-20T08:49:59.278Z,1009.40
2023-02-20T08:51:01.464Z,1009.57
2023-02-20T08:51:59.742Z,1009.37
2023-02-20T08:52:59.974Z,1009.49
2023-02-20T08:54:00.197Z,1009.46
2023-02-20T08:55:00.425Z,1009.39
2023-02-20T08:56:02.609Z,1009.50
2023-02-20T08:57:02.795Z,1009.45
2023-02-20T08:58:02.971Z,1009.40
2023-02-20T08:59:03.181Z,1009.39
2023-02-20T09:00:01.848Z,1009.40
2023-02-20T09:01:04.114Z,1009.30
2023-02-20T09:02:02.488Z,1009.09
2023-02-20T09:03:04.731Z,1009.37
2023-02-20T09:04:03.022Z,1009.20
2023-02-20T09:05:03.387Z,1009.29
2023-02-20T09:06:05.569Z,1009.15
2023-02-20T09:07:03.868Z,1009.29
2023-02-20T09:08:04.095Z,1009.35
2023-02-20T09:09:06.283Z,1009.26
2023-02-20T09:10:04.578Z,1009.25
2023-02-20T09:11:09.934Z,1009.31
2023-02-20T09:12:06.183Z,1009.22
2023-02-20T09:13:06.330Z,1009.17
2023-02-20T09:14:05.744Z,1009.29
2023-02-20T09:15:05.981Z,1009.11
2023-02-20T09:16:08.184Z,1009.38
2023-02-20T09:17:07.419Z,1009.09
2023-02-20T09:18:07.644Z,1009.27
2023-02-20T09:19:07.804Z,1009.24
2023-02-20T09:20:08.156Z,1009.14
2023-02-20T09:21:09.450Z,1009.13
2023-02-20T09:22:07.764Z,1009.29
2023-02-20T09:23:09.937Z,1009.14
2023-02-20T09:24:10.116Z,1009.41
2023-02-20T09:25:08.661Z,1009.18
2023-02-20T09:26:10.081Z,1009.06
2023-02-20T09:27:09.121Z,1009.06
2023-02-20T09:28:11.297Z,1009.03
2023-02-20T09:29:11.503Z,1009.23
2023-02-20T09:30:10.071Z,1009.34
2023-02-20T09:31:12.209Z,1009.05
2023-02-20T09:32:12.502Z,1009.21
2023-02-20T09:33:12.627Z,1009.10
2023-02-20T09:34:12.816Z,1009.18
2023-02-20T09:35:13.469Z,1009.52
2023-02-20T09:36:13.945Z,1009.32
2023-02-20T09:37:13.830Z,1009.21
2023-02-20T09:38:14.318Z,1009.35
2023-02-20T09:39:14.690Z,1009.23
2023-02-20T09:40:14.839Z,1009.35
2023-02-20T09:41:15.042Z,1009.17
2023-02-20T09:42:15.221Z,1009.19
2023-02-20T09:43:15.518Z,1009.10
2023-02-20T09:44:16.083Z,1009.05
2023-02-20T09:45:16.260Z,1009.13
2023-02-20T09:46:16.784Z,1008.99
2023-02-20T09:47:16.650Z,1008.86
2023-02-20T09:48:16.851Z,1009.25
2023-02-20T09:49:17.529Z,1009.12
2023-02-20T09:50:17.694Z,1009.06
2023-02-20T09:51:17.860Z,1008.96
2023-02-20T09:52:18.015Z,1009.08
2023-02-20T09:53:18.693Z,1009.06
2023-02-20T09:54:18.881Z,1009.08
2023-02-20T09:55:19.060Z,1009.13
2023-02-20T09:56:19.712Z,1009.07
2023-02-20T09:57:19.900Z,1009.05
2023-02-20T09:58:20.093Z,1009.21
2023-02-20T09:59:20.255Z,1009.20
2023-02-20T10:00:20.411Z,1009.15
2023-02-20T10:01:21.110Z,1009.08
2023-02-20T10:02:19.671Z,1009.31
2023-02-20T10:03:21.745Z,1009.15
2023-02-20T10:04:20.144Z,1009.10
2023-02-20T10:05:22.313Z,1009.16
2023-02-20T10:06:20.612Z,1009.06
2023-02-20T10:07:22.804Z,1008.73
2023-02-20T10:08:22.982Z,1009.10
2023-02-20T10:09:21.415Z,1009.06
2023-02-20T10:10:23.673Z,1009.12
2023-02-20T10:11:21.878Z,1008.92
2023-02-20T10:12:22.108Z,1009.03
2023-02-20T10:13:24.288Z,1009.10
2023-02-20T10:14:22.609Z,1008.95
2023-02-20T10:15:22.827Z,1008.96
2023-02-20T10:16:23.128Z,1009.03
2023-02-20T10:17:23.352Z,1008.91
2023-02-20T10:18:25.544Z,1009.28
2023-02-20T10:19:23.842Z,1008.81
2023-02-20T10:20:24.185Z,1008.96
2023-02-20T10:21:24.408Z,1008.81
2023-02-20T10:22:24.626Z,1008.95
2023-02-20T10:23:28.565Z,1008.63
2023-02-20T10:24:25.247Z,1008.88
2023-02-20T10:25:25.493Z,1008.92
2023-02-20T10:26:25.732Z,1009.04
2023-02-20T10:27:25.969Z,1008.99
2023-02-20T10:28:28.149Z,1009.14
2023-02-20T10:29:26.440Z,1008.92
2023-02-20T10:30:29.625Z,1009.00
2023-02-20T10:31:27.020Z,1008.83
2023-02-20T10:32:29.083Z,1008.94
2023-02-20T10:33:29.284Z,1008.93
2023-02-20T10:34:27.821Z,1008.87
2023-02-20T10:35:30.001Z,1008.99
2023-02-20T10:36:28.318Z,1008.67
2023-02-20T10:37:41.934Z,1008.76
2023-02-20T10:38:29.813Z,1008.61
2023-02-20T10:39:29.142Z,1008.66
2023-02-20T10:40:31.286Z,1008.80
2023-02-20T10:41:29.709Z,1008.62
2023-02-20T10:42:30.841Z,1008.51
2023-02-20T10:43:30.227Z,1008.68
2023-02-20T10:44:33.531Z,1008.83
2023-02-20T10:45:30.800Z,1008.55
2023-02-20T10:46:46.754Z,1008.68
2023-02-20T10:47:32.308Z,1008.79
2023-02-20T10:48:31.598Z,1008.80
2023-02-20T10:49:31.814Z,1008.58
2023-02-20T10:50:32.056Z,1008.73
2023-02-20T10:51:34.224Z,1008.73
2023-02-20T10:52:34.995Z,1008.60
2023-02-20T10:53:32.786Z,1008.71
2023-02-20T10:54:33.135Z,1008.78
2023-02-20T10:55:33.362Z,1008.79
2023-02-20T10:56:33.715Z,1008.67
2023-02-20T10:57:35.898Z,1008.64
2023-02-20T10:58:34.201Z,1008.71
2023-02-20T10:59:34.427Z,1008.70
2023-02-20T11:00:34.655Z,1009.02
2023-02-20T11:01:36.918Z,1008.74
2023-02-20T11:02:35.239Z,1008.80
2023-02-20T11:03:37.408Z,1008.70
2023-02-20T11:04:35.819Z,1008.64
2023-02-20T11:05:36.053Z,1008.73
2023-02-20T11:06:36.339Z,1008.42
2023-02-20T11:07:36.559Z,1008.66
2023-02-20T11:08:38.759Z,1008.71
2023-02-20T11:09:37.064Z,1008.64
2023-02-20T11:10:37.305Z,1008.61
2023-02-20T11:11:39.494Z,1008.63
2023-02-20T11:12:39.647Z,1008.45
2023-02-20T11:13:39.833Z,1008.62
2023-02-20T11:14:40.939Z,1008.64
2023-02-20T11:15:40.641Z,1008.76
2023-02-20T11:16:40.758Z,1008.55
2023-02-20T11:17:40.013Z,1008.67
2023-02-20T11:18:41.376Z,1008.68
2023-02-20T11:19:39.682Z,1008.81
2023-02-20T11:20:41.846Z,1008.47
2023-02-20T11:21:40.240Z,1008.56
2023-02-20T11:22:42.327Z,1008.62
2023-02-20T11:23:40.751Z,1008.53
2023-02-20T11:24:40.988Z,1008.40
2023-02-20T11:25:41.213Z,1008.40
2023-02-20T11:26:43.401Z,1008.54
2023-02-20T11:27:41.717Z,1008.39
2023-02-20T11:28:41.952Z,1008.61
2023-02-20T11:29:44.113Z,1008.56
2023-02-20T11:30:44.383Z,1008.48
2023-02-20T11:31:44.567Z,1008.58
2023-02-20T11:32:42.987Z,1008.36
2023-02-20T11:33:43.211Z,1008.62
2023-02-20T11:34:45.416Z,1008.42
2023-02-20T11:35:45.598Z,1008.47
2023-02-20T11:36:44.833Z,1008.57
2023-02-20T11:37:54.844Z,1008.57
2023-02-20T11:38:45.659Z,1008.54
2023-02-20T11:39:46.841Z,1008.49
2023-02-20T11:40:47.024Z,1008.39
2023-02-20T11:41:47.203Z,1008.57
2023-02-20T11:42:47.427Z,1008.43
2023-02-20T11:44:00.518Z,1008.43
2023-02-20T11:44:48.428Z,1008.48
2023-02-20T11:45:47.565Z,1008.34
2023-02-20T11:46:46.953Z,1008.37
2023-02-20T11:47:49.150Z,1008.36
2023-02-20T11:48:49.343Z,1008.24
2023-02-20T11:49:47.871Z,1008.61
2023-02-20T11:50:48.231Z,1008.46
2023-02-20T11:51:48.467Z,1008.43
2023-02-20T11:52:50.686Z,1008.40
2023-02-20T11:53:50.852Z,1008.35
2023-02-20T11:54:49.308Z,1008.51
2023-02-20T11:55:59.748Z,1008.61
2023-02-20T11:56:50.863Z,1008.57
2023-02-20T11:57:50.147Z,1008.44
2023-02-20T11:58:52.323Z,1008.50
2023-02-20T11:59:50.739Z,1008.40
2023-02-20T12:00:51.085Z,1008.64
2023-02-20T12:02:00.884Z,1008.37
2023-02-20T12:02:52.603Z,1008.57
2023-02-20T12:03:53.770Z,1008.58
2023-02-20T12:04:53.962Z,1008.58
2023-02-20T12:05:54.131Z,1008.57
2023-02-20T12:06:54.324Z,1008.45
2023-02-20T12:07:53.115Z,1008.60
2023-02-20T12:08:54.286Z,1008.39
2023-02-20T12:09:55.472Z,1008.68